Time;durP1;ratioP1;P1;durP2;ratioP2;P2;SDS_P1;SDS_P2;PMS_P1;PMS_P2;Temp;Humidity;BMP_temperature;BMP_pressure;BME280_temperature;BME280_humidity;BME280_pressure;Samples;Min_cycle;Max_cycle;Signal;HPM_P1;HPM_P2
2023/07/08 00:00:17;;;;;;;6.00;3.20;;;;;;;12.64;69.84;100324.95;1682829;83;20553;-65
2023/07/08 00:02:46;;;;;;;4.50;3.30;;;;;;;12.64;69.84;100321.03;1683057;83;21042;-65
2023/07/08 00:05:14;;;;;;;;;;;;;;;12.63;69.83;100323.27;1686686;84;20986;-65
2023/07/08 00:07:42;;;;;;;3.98;3.20;;;;;;;12.60;70.16;100323.84;1683395;84;20450;-65
2023/07/08 00:10:12;;;;;;;3.60;2.90;;;;;;;12.57;70.14;100318.75;1685268;83;20935;-65
2023/07/08 00:12:38;;;;;;;4.03;2.77;;;;;;;12.54;70.21;100321.05;1682946;84;21628;-65
2023/07/08 00:15:06;;;;;;;5.10;3.12;;;;;;;12.55;70.25;100331.94;1683927;83;21530;-65
2023/07/08 00:17:32;;;;;;;7.50;2.90;;;;;;;12.55;70.33;100331.94;1684063;84;21364;-65
2023/07/08 00:19:59;;;;;;;3.42;2.75;;;;;;;12.55;70.43;100324.08;1683026;84;20998;-65
2023/07/08 00:22:25;;;;;;;3.43;2.90;;;;;;;12.54;70.52;100331.53;1684345;84;21085;-65
2023/07/08 00:24:52;;;;;;;5.03;3.22;;;;;;;12.53;70.69;100333.77;1684299;83;21061;-65
2023/07/08 00:27:18;;;;;;;3.75;3.12;;;;;;;12.46;70.68;100326.66;1684432;83;21089;-65
2023/07/08 00:29:45;;;;;;;6.22;3.58;;;;;;;12.46;70.68;100326.66;1682776;83;21541;-65
2023/07/08 00:32:14;;;;;;;4.17;2.83;;;;;;;12.44;70.99;100330.27;1683426;84;20974;-66
2023/07/08 00:34:41;;;;;;;4.50;3.47;;;;;;;12.41;71.10;100332.56;1684592;83;21821;-65
2023/07/08 00:37:12;;;;;;;3.92;2.85;;;;;;;12.37;71.18;100323.12;1684283;84;21045;-65
2023/07/08 00:39:39;;;;;;;7.92;2.75;;;;;;;12.34;71.32;100321.12;1683726;84;21042;-65
2023/07/08 00:42:11;;;;;;;5.33;3.12;;;;;;;12.30;71.46;100325.19;1682692;83;21069;-65
2023/07/08 00:44:39;;;;;;;6.65;3.92;;;;;;;12.23;71.47;100318.51;1679304;84;21031;-66
2023/07/08 00:47:08;;;;;;;4.50;3.30;;;;;;;12.17;71.59;100326.64;1683518;83;21319;-65
2023/07/08 00:49:44;;;;;;;3.62;2.98;;;;;;;12.12;71.78;100330.38;1668464;84;21489;-65
2023/07/08 00:52:20;;;;;;;4.65;2.90;;;;;;;12.09;71.92;100331.36;1587769;87;21074;-65
2023/07/08 00:54:56;;;;;;;5.97;3.58;;;;;;;12.02;72.09;100327.33;1638943;86;20991;-65
2023/07/08 00:57:25;;;;;;;5.67;3.37;;;;;;;11.96;72.24;100324.95;1638811;86;21593;-66
2023/07/08 00:59:55;;;;;;;3.58;2.77;;;;;;;11.91;72.24;100325.17;1681402;84;21006;-66
2023/07/08 01:02:24;;;;;;;3.87;3.17;;;;;;;11.84;72.42;100322.37;1682256;83;21058;-65
2023/07/08 01:05:00;;;;;;;5.42;3.20;;;;;;;11.75;72.50;100324.94;1683964;84;21029;-65
2023/07/08 01:07:26;;;;;;;5.10;3.40;;;;;;;11.70;72.71;100321.66;1681629;83;21077;-65
2023/07/08 01:09:59;;;;;;;5.78;3.65;;;;;;;11.67;72.95;100321.79;1674157;84;21023;-65
2023/07/08 01:12:29;;;;;;;4.87;3.20;;;;;;;11.70;73.13;100324.27;1673048;85;21517;-64
2023/07/08 01:14:57;;;;;;;5.05;2.85;;;;;;;11.75;73.22;100321.01;1672612;84;21066;-65
2023/07/08 01:17:24;;;;;;;4.25;2.95;;;;;;;11.80;73.34;100320.36;1673404;85;21082;-65
2023/07/08 01:19:51;;;;;;;4.25;2.98;;;;;;;11.86;73.33;100317.51;1675710;84;21581;-65
2023/07/08 01:22:17;;;;;;;5.65;3.72;;;;;;;11.94;73.40;100316.34;1646711;85;21488;-65
2023/07/08 01:24:46;;;;;;;3.87;2.95;;;;;;;12.01;73.42;100320.38;1680796;84;21806;-66
2023/07/08 01:27:15;;;;;;;3.52;2.87;;;;;;;12.07;73.43;100320.09;1673803;84;20983;-65
2023/07/08 01:29:42;;;;;;;4.75;3.25;;;;;;;12.11;73.39;100320.38;1673434;84;20970;-65
2023/07/08 01:32:17;;;;;;;4.83;2.93;;;;;;;12.16;73.47;100314.48;1672724;84;21045;-65
2023/07/08 01:34:59;;;;;;;5.05;2.70;;;;;;;12.22;73.58;100315.52;1673710;84;21014;-65
2023/07/08 01:37:17;;;;;;;4.92;2.72;;;;;;;12.25;73.56;100313.22;1660539;85;21077;-65
2023/07/08 01:39:43;;;;;;;3.70;2.62;;;;;;;12.29;73.54;100317.38;1673939;84;20987;-65
2023/07/08 01:42:09;;;;;;;4.22;2.15;;;;;;;12.31;73.58;100305.08;1666344;84;21586;-65
2023/07/08 01:44:36;;;;;;;4.10;2.90;;;;;;;12.35;73.65;100295.31;1656273;85;21487;-65
2023/07/08 01:47:10;;;;;;;4.00;2.72;;;;;;;12.37;73.79;100299.56;1681538;85;21077;-65
2023/07/08 01:49:39;;;;;;;4.33;2.67;;;;;;;12.38;73.78;100297.78;1637941;87;21043;-65
2023/07/08 01:52:07;;;;;;;3.47;2.75;;;;;;;12.40;73.89;100301.19;1638793;86;21041;-66
2023/07/08 01:54:34;;;;;;;4.20;2.42;;;;;;;12.42;73.90;100299.36;1638962;86;21561;-65
2023/07/08 01:57:02;;;;;;;4.08;2.47;;;;;;;12.43;73.87;100295.81;1672512;84;21649;-65
2023/07/08 01:59:29;;;;;;;4.87;2.33;;;;;;;12.46;73.94;100295.23;1659638;84;20994;-65
2023/07/08 02:01:55;;;;;;;3.62;2.67;;;;;;;12.52;73.96;100295.41;1669726;84;21069;-66
2023/07/08 02:04:24;;;;;;;6.12;2.90;;;;;;;12.53;73.94;100290.55;1670878;84;21129;-65
2023/07/08 02:06:59;;;;;;;3.83;2.52;;;;;;;12.60;74.08;100298.50;1670536;84;20999;-65
2023/07/08 02:09:26;;;;;;;3.45;2.33;;;;;;;12.63;74.08;100287.91;1661540;84;20968;-65
2023/07/08 02:11:56;;;;;;;5.72;2.55;;;;;;;12.65;74.03;100294.36;1658928;84;21579;-65
2023/07/08 02:14:22;;;;;;;3.05;2.30;;;;;;;12.67;74.08;100287.30;1650579;86;21556;-65
2023/07/08 02:16:49;;;;;;;4.85;2.52;;;;;;;12.68;74.12;100291.59;1690602;83;21576;-65
2023/07/08 02:19:15;;;;;;;2.75;2.10;;;;;;;12.69;74.22;100290.70;1657385;86;21038;-65
2023/07/08 02:21:42;;;;;;;7.10;2.50;;;;;;;12.68;74.21;100289.83;1692966;83;20994;-65
2023/07/08 02:24:09;;;;;;;3.70;2.15;;;;;;;12.69;74.32;100295.47;1658139;86;21025;-66
2023/07/08 02:26:35;;;;;;;3.25;2.30;;;;;;;12.70;74.26;100291.08;1677750;84;20975;-65
2023/07/08 02:29:02;;;;;;;2.77;2.10;;;;;;;12.71;74.30;100295.38;1672846;84;21043;-65
2023/07/08 02:31:29;;;;;;;3.50;2.55;;;;;;;12.62;74.32;100275.70;1673724;84;21002;-65
2023/07/08 02:33:55;;;;;;;2.20;1.80;;;;;;;12.76;74.25;100296.86;1673151;84;21031;-65
2023/07/08 02:36:22;;;;;;;3.87;2.87;;;;;;;12.76;74.25;100296.86;1673329;84;21035;-65
2023/07/08 02:38:50;;;;;;;3.45;2.00;;;;;;;12.81;74.59;100303.67;1673284;85;21038;-65
2023/07/08 02:41:17;;;;;;;3.15;2.30;;;;;;;12.88;74.69;100299.83;1673857;85;20967;-65
2023/07/08 02:43:43;;;;;;;2.87;2.05;;;;;;;12.94;74.71;100299.56;1672153;84;21039;-66
2023/07/08 02:46:10;;;;;;;3.95;2.20;;;;;;;13.05;74.71;100305.14;1674307;84;20947;-65
2023/07/08 02:48:36;;;;;;;3.67;2.22;;;;;;;13.05;74.71;100305.14;1672965;84;21473;-65
2023/07/08 02:51:04;;;;;;;2.33;2.10;;;;;;;13.10;75.04;100301.80;1671911;84;21579;-66
2023/07/08 02:53:31;;;;;;;4.87;2.52;;;;;;;13.14;75.12;100299.44;1672205;84;20955;-65
2023/07/08 02:55:57;;;;;;;3.65;2.08;;;;;;;13.14;75.16;100286.33;1673407;84;21066;-66
2023/07/08 02:58:25;;;;;;;5.00;2.25;;;;;;;13.20;75.14;100296.52;1671770;84;20998;-66
2023/07/08 03:00:55;;;;;;;5.50;2.00;;;;;;;13.19;75.17;100296.14;1673622;84;21018;-65
2023/07/08 03:03:22;;;;;;;3.52;2.27;;;;;;;13.09;75.37;100269.97;1671700;84;21037;-66
2023/07/08 03:06:05;;;;;;;3.40;2.15;;;;;;;13.09;75.37;100269.97;1673242;85;21618;-65
2023/07/08 03:08:32;;;;;;;4.80;2.15;;;;;;;13.24;75.46;100293.73;1674139;84;20971;-66
2023/07/08 03:11:01;;;;;;;4.55;2.02;;;;;;;13.24;75.39;100296.36;1672940;84;21046;-66
2023/07/08 03:13:29;;;;;;;2.70;2.20;;;;;;;13.25;75.55;100291.05;1672707;84;21027;-66
2023/07/08 03:15:56;;;;;;;6.67;2.05;;;;;;;13.28;75.54;100295.33;1673630;84;21214;-65
2023/07/08 03:18:24;;;;;;;3.72;2.27;;;;;;;13.27;75.53;100293.61;1673406;85;21506;-66
2023/07/08 03:20:50;;;;;;;3.10;2.30;;;;;;;13.30;75.52;100290.84;1672489;84;20999;-65
2023/07/08 03:23:16;;;;;;;4.92;1.95;;;;;;;13.29;75.58;100282.59;1673669;85;21292;-65
2023/07/08 03:25:44;;;;;;;4.47;2.40;;;;;;;13.28;75.51;100280.91;1670781;84;21537;-65
2023/07/08 03:28:14;;;;;;;3.58;2.33;;;;;;;13.28;75.51;100280.91;1671429;84;21098;-65
2023/07/08 03:30:42;;;;;;;3.17;2.10;;;;;;;13.24;75.53;100273.60;1644619;86;20983;-66
2023/07/08 03:33:09;;;;;;;4.00;2.12;;;;;;;13.24;75.62;100279.31;1609367;87;21000;-66
2023/07/08 03:35:35;;;;;;;4.67;2.40;;;;;;;13.28;75.74;100276.97;1640717;86;20961;-66
2023/07/08 03:38:03;;;;;;;2.62;2.10;;;;;;;13.34;75.76;100281.91;1674256;84;21108;-65
2023/07/08 03:40:30;;;;;;;3.47;2.30;;;;;;;13.38;75.83;100287.38;1634323;85;21139;-65
2023/07/08 03:42:56;;;;;;;2.00;1.80;;;;;;;13.42;75.96;100279.75;1638518;86;20972;-66
2023/07/08 03:45:22;;;;;;;4.50;2.50;;;;;;;13.42;75.82;100279.75;1672910;84;21070;-65
2023/07/08 03:47:48;;;;;;;3.98;2.12;;;;;;;13.32;75.79;100274.10;1675830;84;20979;-66
2023/07/08 03:50:23;;;;;;;5.25;2.02;;;;;;;13.35;76.40;100284.44;1676522;85;21085;-65
2023/07/08 03:52:53;;;;;;;2.67;1.75;;;;;;;13.44;76.67;100291.00;1677345;85;21038;-65
2023/07/08 03:55:20;;;;;;;1.90;1.70;;;;;;;13.51;76.62;100287.16;1677298;85;21081;-65
2023/07/08 03:57:46;;;;;;;4.25;1.87;;;;;;;13.56;76.60;100287.77;1677546;85;21039;-65
2023/07/08 04:00:14;;;;;;;4.85;1.80;;;;;;;13.59;76.55;100284.99;1678498;85;21018;-65
2023/07/08 04:02:42;;;;;;;6.95;2.55;;;;;;;13.63;76.54;100286.52;1680285;84;20991;-65
2023/07/08 04:05:19;;;;;;;3.60;1.62;;;;;;;13.70;76.57;100288.86;1678236;85;21064;-65
2023/07/08 04:07:45;;;;;;;2.42;1.77;;;;;;;13.79;76.72;100295.78;1677177;85;21042;-65
2023/07/08 04:10:12;;;;;;;1.77;1.57;;;;;;;13.88;76.51;100293.14;1676730;84;21050;-65
2023/07/08 04:12:39;;;;;;;;;;;;;;;13.98;76.56;100303.56;1681140;85;21297;-65
2023/07/08 04:15:09;;;;;;;4.05;1.55;;;;;;;14.06;76.84;100305.33;1676615;85;20112;-65
2023/07/08 04:17:45;;;;;;;4.17;1.60;;;;;;;14.13;76.74;100303.21;1677646;84;21058;-66
2023/07/08 04:20:14;;;;;;;3.92;1.90;;;;;;;14.21;76.67;100299.72;1677420;84;21097;-66
2023/07/08 04:22:40;;;;;;;2.58;1.90;;;;;;;14.34;77.04;100303.86;1677434;84;20963;-65
2023/07/08 04:25:07;;;;;;;3.12;1.92;;;;;;;14.44;77.09;100303.73;1678010;85;20967;-65
2023/07/08 04:27:34;;;;;;;4.53;2.20;;;;;;;14.60;77.48;100306.42;1677667;84;20991;-65
2023/07/08 04:30:00;;;;;;;3.27;1.80;;;;;;;14.79;77.34;100297.06;1677925;85;20976;-66
2023/07/08 04:32:26;;;;;;;3.35;1.90;;;;;;;14.96;77.27;100298.75;1677391;84;21038;-65
2023/07/08 04:34:52;;;;;;;4.28;1.82;;;;;;;15.15;77.42;100301.16;1677408;85;21043;-65
2023/07/08 04:37:19;;;;;;;3.37;2.00;;;;;;;15.33;77.14;100302.75;1677578;85;20971;-65
2023/07/08 04:39:46;;;;;;;7.03;2.00;;;;;;;15.50;77.15;100295.66;1677979;84;20983;-65
2023/07/08 04:42:17;;;;;;;3.10;2.00;;;;;;;15.63;77.05;100294.02;1677030;85;22089;-65
2023/07/08 04:44:44;;;;;;;1.90;1.75;;;;;;;15.66;76.39;100285.94;1678658;84;21249;-66
2023/07/08 04:47:13;;;;;;;2.70;2.15;;;;;;;15.68;76.54;100281.43;1677287;84;20998;-66
2023/07/08 04:49:40;;;;;;;5.45;2.45;;;;;;;15.72;76.36;100280.33;1639708;85;21047;-66
2023/07/08 04:52:06;;;;;;;2.77;1.75;;;;;;;15.76;76.54;100279.19;1621540;88;21042;-66
2023/07/08 04:54:33;;;;;;;2.45;1.55;;;;;;;15.81;76.21;100278.45;1622524;87;21026;-65
2023/07/08 04:57:00;;;;;;;5.97;2.00;;;;;;;15.81;75.80;100282.41;1620663;87;21055;-65
2023/07/08 04:59:26;;;;;;;2.67;1.85;;;;;;;15.87;76.16;100285.97;1622353;88;21746;-65
2023/07/08 05:01:53;;;;;;;4.45;2.50;;;;;;;15.95;75.58;100287.31;1618746;87;20987;-66
2023/07/08 05:04:22;;;;;;;5.03;2.42;;;;;;;16.03;75.85;100287.22;1612919;88;21195;-65
2023/07/08 05:06:49;;;;;;;4.78;2.65;;;;;;;16.18;75.99;100282.80;1620095;86;21560;-66
2023/07/08 05:09:15;;;;;;;3.35;2.20;;;;;;;16.32;75.73;100280.14;1611969;88;21048;-65
2023/07/08 05:11:41;;;;;;;3.98;1.70;;;;;;;16.49;75.54;100283.52;1655849;86;21449;-66
2023/07/08 05:14:08;;;;;;;2.83;2.10;;;;;;;16.61;75.46;100277.49;1615573;87;21037;-66
2023/07/08 05:16:40;;;;;;;3.17;1.60;;;;;;;16.74;75.53;100273.11;1607724;87;21593;-66
2023/07/08 05:19:03;;;;;;;5.33;1.70;;;;;;;16.90;75.02;100285.35;1650141;85;21106;-66
2023/07/08 05:21:33;;;;;;;3.50;1.65;;;;;;;17.05;75.06;100281.70;1645939;85;20990;-66
2023/07/08 05:24:00;;;;;;;4.03;1.30;;;;;;;17.23;74.70;100280.52;1643943;87;21062;-66
2023/07/08 05:26:27;;;;;;;2.00;1.50;;;;;;;17.39;74.58;100267.59;1638355;85;20991;-66
2023/07/08 05:28:55;;;;;;;3.25;1.55;;;;;;;17.56;74.47;100271.30;1649948;86;21054;-66
2023/07/08 05:31:21;;;;;;;2.42;1.50;;;;;;;17.73;74.18;100272.79;1649180;85;21024;-66
2023/07/08 05:33:47;;;;;;;1.83;1.27;;;;;;;17.92;74.42;100273.70;1651355;85;21450;-66
2023/07/08 05:36:13;;;;;;;2.65;1.22;;;;;;;18.13;74.44;100266.58;1641894;86;21040;-66
2023/07/08 05:38:40;;;;;;;2.85;1.40;;;;;;;18.37;74.54;100268.78;1648441;85;21069;-65
2023/07/08 05:41:06;;;;;;;2.45;1.50;;;;;;;18.70;74.31;100264.20;1652358;86;21068;-66
2023/07/08 05:43:32;;;;;;;2.15;1.20;;;;;;;19.04;74.34;100263.57;1627961;86;21098;-66
2023/07/08 05:46:00;;;;;;;2.55;1.60;;;;;;;19.35;74.01;100255.05;1672748;84;21100;-66
2023/07/08 05:48:27;;;;;;;2.17;1.42;;;;;;;19.69;73.82;100252.51;1653871;84;21057;-66
2023/07/08 05:50:55;;;;;;;3.10;1.55;;;;;;;20.04;73.32;100251.56;1671815;84;21016;-65
2023/07/08 05:53:23;;;;;;;2.55;1.57;;;;;;;20.30;72.91;100255.64;1674818;84;20972;-66
2023/07/08 05:55:51;;;;;;;1.82;1.20;;;;;;;20.54;72.31;100254.69;1677974;84;21074;-66
2023/07/08 05:58:17;;;;;;;4.90;1.35;;;;;;;20.71;72.11;100254.16;1678571;84;21113;-65
2023/07/08 06:00:44;;;;;;;4.87;1.50;;;;;;;20.93;72.27;100255.08;1675244;84;21084;-66
2023/07/08 06:03:11;;;;;;;;;;;;;;;21.08;71.73;100251.63;1680645;85;21034;-66
2023/07/08 06:05:38;;;;;;;2.20;1.50;;;;;;;21.12;70.79;100255.25;1677641;84;20441;-65
2023/07/08 06:08:07;;;;;;;3.77;1.92;;;;;;;21.15;70.90;100253.66;1677758;84;21078;-66
2023/07/08 06:10:34;;;;;;;4.65;1.52;;;;;;;21.23;71.15;100254.36;1676994;84;21014;-66
2023/07/08 06:13:00;;;;;;;2.27;1.57;;;;;;;21.30;70.89;100254.67;1656818;84;21034;-66
2023/07/08 06:15:26;;;;;;;3.08;1.50;;;;;;;21.18;70.30;100256.06;1677629;84;21623;-66
2023/07/08 06:17:53;;;;;;;1.95;1.30;;;;;;;21.30;70.68;100266.63;1676782;85;20974;-66
2023/07/08 06:20:19;;;;;;;3.52;1.37;;;;;;;21.58;70.66;100261.20;1676966;84;21070;-66
2023/07/08 06:22:46;;;;;;;4.80;1.37;;;;;;;21.92;70.42;100267.13;1678736;84;21061;-66
2023/07/08 06:25:16;;;;;;;2.75;1.40;;;;;;;22.31;69.79;100258.02;1675724;85;21074;-66
2023/07/08 06:27:41;;;;;;;3.65;1.82;;;;;;;22.55;69.27;100254.52;1672678;84;21007;-66
2023/07/08 06:30:08;;;;;;;4.40;1.70;;;;;;;22.70;68.70;100258.95;1677251;84;21529;-66
2023/07/08 06:32:37;;;;;;;4.65;1.62;;;;;;;22.81;68.26;100254.00;1676100;84;20980;-66
2023/07/08 06:35:05;;;;;;;2.70;1.90;;;;;;;22.82;67.87;100255.67;1676590;85;21007;-66
2023/07/08 06:37:33;;;;;;;4.28;1.98;;;;;;;22.84;67.38;100252.39;1677012;84;20987;-67
2023/07/08 06:39:59;;;;;;;3.47;2.05;;;;;;;22.71;67.45;100255.80;1675129;84;20995;-67
2023/07/08 06:42:26;;;;;;;5.35;1.70;;;;;;;22.93;67.70;100249.38;1676068;84;21089;-66
2023/07/08 06:44:54;;;;;;;6.70;1.95;;;;;;;23.05;66.95;100248.31;1677438;84;21743;-66
2023/07/08 06:47:22;;;;;;;2.80;1.35;;;;;;;23.26;66.74;100248.16;1677655;84;21526;-66
2023/07/08 06:49:48;;;;;;;2.33;1.52;;;;;;;23.48;66.42;100249.67;1676334;84;21075;-67
2023/07/08 06:52:15;;;;;;;5.37;1.67;;;;;;;23.70;65.39;100247.67;1672413;84;21566;-68
2023/07/08 06:54:45;;;;;;;4.47;1.52;;;;;;;23.84;65.28;100242.74;1671061;84;20975;-67
2023/07/08 06:57:13;;;;;;;4.37;2.00;;;;;;;24.11;65.27;100239.75;1674313;84;21494;-66
2023/07/08 06:59:39;;;;;;;3.33;1.60;;;;;;;24.70;64.32;100245.16;1674529;84;21576;-66
2023/07/08 07:02:08;;;;;;;3.15;1.80;;;;;;;24.70;64.32;100245.16;1671428;84;21320;-69
2023/07/08 07:04:36;;;;;;;5.17;1.90;;;;;;;24.94;63.63;100248.55;1655478;84;21042;-68
2023/07/08 07:07:02;;;;;;;7.37;2.02;;;;;;;25.28;63.03;100248.38;1674276;84;21621;-68
2023/07/08 07:09:28;;;;;;;3.02;1.47;;;;;;;26.00;63.55;100244.55;1672581;84;21617;-68
2023/07/08 07:11:54;;;;;;;3.45;1.82;;;;;;;26.90;63.54;100234.14;1674448;84;20994;-68
2023/07/08 07:14:21;;;;;;;4.45;1.77;;;;;;;28.01;63.71;100239.45;1673251;84;21085;-68
2023/07/08 07:16:52;;;;;;;2.42;1.45;;;;;;;29.13;62.97;100234.16;1673470;84;20987;-69
2023/07/08 07:19:19;;;;;;;3.22;1.82;;;;;;;30.32;63.01;100231.08;1670165;85;21051;-66
2023/07/08 07:21:45;;;;;;;4.12;1.60;;;;;;;31.66;61.61;100237.27;1647314;85;20996;-65
2023/07/08 07:24:12;;;;;;;4.62;1.95;;;;;;;32.56;59.66;100230.05;1673173;84;21129;-67
2023/07/08 07:26:40;;;;;;;8.90;2.00;;;;;;;32.63;58.05;100234.11;1652839;84;20980;-67
2023/07/08 07:29:07;;;;;;;5.08;1.87;;;;;;;32.90;58.17;100233.66;1673130;84;20983;-70
2023/07/08 07:31:34;;;;;;;4.12;1.50;;;;;;;33.73;57.04;100240.05;1672941;85;21565;-70
2023/07/08 07:34:01;;;;;;;3.27;1.57;;;;;;;34.69;55.93;100235.22;1654008;85;20964;-70
2023/07/08 07:36:34;;;;;;;4.25;1.92;;;;;;;35.63;54.95;100242.45;1669961;84;20995;-70
2023/07/08 07:39:04;;;;;;;3.72;1.82;;;;;;;36.45;53.24;100241.31;1651687;85;21066;-68
2023/07/08 07:41:31;;;;;;;8.33;2.12;;;;;;;36.55;51.70;100234.80;1672289;84;20956;-68
2023/07/08 07:43:57;;;;;;;3.62;1.50;;;;;;;36.99;50.31;100231.33;1672419;84;21058;-68
2023/07/08 07:46:24;;;;;;;3.67;1.50;;;;;;;37.32;49.20;100232.70;1674119;84;21532;-68
2023/07/08 07:48:51;;;;;;;4.75;1.50;;;;;;;37.60;47.49;100239.66;1673424;84;22646;-67
2023/07/08 07:51:17;;;;;;;7.37;1.67;;;;;;;37.79;46.59;100242.25;1683858;83;21065;-67
2023/07/08 07:53:44;;;;;;;8.75;2.85;;;;;;;38.08;45.26;100242.34;1686881;85;21168;-67
2023/07/08 07:56:10;;;;;;;9.68;1.95;;;;;;;38.33;44.40;100238.75;1686989;85;22184;-66
2023/07/08 07:58:36;;;;;;;2.30;1.40;;;;;;;38.52;43.22;100238.61;1688401;83;21022;-67
2023/07/08 08:01:03;;;;;;;4.28;1.90;;;;;;;38.87;42.30;100233.80;1688755;83;21112;-67
2023/07/08 08:03:29;;;;;;;6.55;2.00;;;;;;;39.29;41.22;100232.55;1686241;83;21560;-67
2023/07/08 08:05:56;;;;;;;4.92;1.87;;;;;;;40.25;40.38;100235.86;1687528;83;21118;-67
2023/07/08 08:08:22;;;;;;;5.25;1.50;;;;;;;40.87;38.46;100240.61;1687687;84;21070;-67
2023/07/08 08:10:53;;;;;;;3.92;1.60;;;;;;;41.31;37.98;100240.41;1687985;83;21084;-67
2023/07/08 08:13:19;;;;;;;3.45;1.70;;;;;;;41.94;37.02;100242.75;1687141;84;21041;-66
2023/07/08 08:15:45;;;;;;;3.80;1.70;;;;;;;41.98;36.18;100237.55;1688481;84;20971;-67
2023/07/08 08:18:11;;;;;;;6.10;2.05;;;;;;;42.72;35.29;100235.03;1689073;83;20997;-67
2023/07/08 08:20:39;;;;;;;4.30;1.80;;;;;;;43.56;34.34;100236.41;1688294;83;20989;-67
2023/07/08 08:23:06;;;;;;;3.02;1.50;;;;;;;43.95;32.83;100230.80;1659005;84;21034;-67
2023/07/08 08:25:32;;;;;;;8.60;1.70;;;;;;;44.57;32.17;100234.04;1684896;83;21025;-67
2023/07/08 08:28:02;;;;;;;4.90;1.80;;;;;;;44.98;31.46;100234.54;1681653;84;21069;-66
2023/07/08 08:30:28;;;;;;;5.10;1.92;;;;;;;45.17;30.15;100233.86;1682114;83;21057;-67
2023/07/08 08:32:54;;;;;;;8.05;1.90;;;;;;;45.50;29.41;100234.89;1682247;83;20998;-66
2023/07/08 08:35:21;;;;;;;8.28;1.85;;;;;;;45.50;28.00;100232.95;1683250;82;21014;-67
2023/07/08 08:37:47;;;;;;;2.58;1.60;;;;;;;45.47;27.35;100241.81;1682968;85;21045;-67
2023/07/08 08:40:17;;;;;;;3.95;1.70;;;;;;;45.83;26.82;100242.81;1682198;83;21013;-67
2023/07/08 08:42:48;;;;;;;6.20;1.50;;;;;;;46.05;26.18;100242.82;1682488;83;21048;-67
2023/07/08 08:45:20;;;;;;;3.20;1.87;;;;;;;46.35;25.32;100236.90;1681950;84;21089;-66
2023/07/08 08:47:53;;;;;;;4.08;1.85;;;;;;;46.07;24.90;100243.35;1631874;85;21490;-67
2023/07/08 08:50:32;;;;;;;6.22;1.95;;;;;;;46.48;24.50;100242.81;1651395;85;21120;-67
2023/07/08 08:53:02;;;;;;;4.50;1.98;;;;;;;46.92;23.82;100238.79;1684198;83;21065;-67
2023/07/08 08:55:30;;;;;;;3.58;1.65;;;;;;;47.24;23.52;100247.09;1685315;83;21770;-66
2023/07/08 08:58:00;;;;;;;8.18;2.10;;;;;;;47.51;22.52;100246.91;1681935;83;21568;-67
2023/07/08 09:00:41;;;;;;;5.08;1.87;;;;;;;47.16;22.42;100246.97;1683089;83;21053;-66
2023/07/08 09:03:11;;;;;;;5.92;1.80;;;;;;;47.35;22.09;100242.76;1681688;85;21038;-66
2023/07/08 09:05:37;;;;;;;8.40;1.57;;;;;;;47.62;21.41;100230.36;1683029;85;20999;-66
2023/07/08 09:08:10;;;;;;;3.20;1.50;;;;;;;47.90;21.35;100231.75;1683667;83;21036;-66
2023/07/08 09:10:46;;;;;;;2.37;1.50;;;;;;;48.72;21.14;100228.51;1683830;83;21049;-67
2023/07/08 09:13:19;;;;;;;2.65;1.60;;;;;;;49.29;20.41;100236.45;1682348;83;21002;-66
2023/07/08 09:15:48;;;;;;;3.45;1.60;;;;;;;48.87;19.73;100239.22;1645841;85;21082;-66
2023/07/08 09:18:24;;;;;;;3.65;1.80;;;;;;;47.29;19.47;100233.17;1650167;85;21046;-67
2023/07/08 09:20:55;;;;;;;4.42;1.70;;;;;;;45.46;19.31;100233.29;1650665;85;21513;-66
2023/07/08 09:23:34;;;;;;;3.90;1.90;;;;;;;44.66;19.46;100227.63;1655140;85;20965;-68
2023/07/08 09:26:08;;;;;;;2.95;1.47;;;;;;;44.32;19.64;100230.87;1683215;83;21100;-67
2023/07/08 09:28:41;;;;;;;4.65;1.65;;;;;;;45.57;19.73;100222.16;1682143;83;21141;-67
2023/07/08 09:31:11;;;;;;;7.42;1.80;;;;;;;46.64;19.25;100233.16;1685612;82;21073;-66
2023/07/08 09:33:43;;;;;;;1.92;1.35;;;;;;;47.02;18.73;100230.33;1680901;83;21664;-66
2023/07/08 09:36:21;;;;;;;5.15;1.98;;;;;;;46.74;18.70;100234.39;1679914;83;21065;-67
2023/07/08 09:38:49;;;;;;;6.12;1.85;;;;;;;47.04;18.87;100232.27;1683308;84;21121;-68
2023/07/08 09:41:28;;;;;;;4.00;1.30;;;;;;;47.33;18.15;100229.80;1678389;83;21655;-66
2023/07/08 09:43:48;;;;;;;3.83;1.60;;;;;;;45.42;17.73;100229.45;1677817;83;21073;-67
2023/07/08 09:46:16;;;;;;;4.95;1.55;;;;;;;43.29;18.06;100235.32;1680232;83;21093;-68
2023/07/08 09:48:47;;;;;;;5.20;1.30;;;;;;;42.07;18.12;100239.22;1678921;83;21286;-67
2023/07/08 09:51:16;;;;;;;3.30;1.40;;;;;;;42.41;18.87;100233.61;1680716;83;21344;-67
2023/07/08 09:53:44;;;;;;;3.37;1.40;;;;;;;43.20;18.30;100234.25;1684644;82;21060;-69
2023/07/08 09:56:10;;;;;;;2.30;1.50;;;;;;;42.08;18.13;100234.04;1682451;83;21041;-70
2023/07/08 09:58:42;;;;;;;2.83;1.57;;;;;;;42.67;19.06;100231.72;1681013;83;21516;-69
2023/07/08 10:01:14;;;;;;;2.20;1.27;;;;;;;44.23;18.83;100227.34;1681086;83;21525;-69
2023/07/08 10:03:42;;;;;;;3.42;1.52;;;;;;;45.62;18.72;100231.75;1681117;84;21903;-70
2023/07/08 10:06:17;;;;;;;5.20;1.80;;;;;;;46.79;18.55;100230.16;1681339;83;21015;-68
2023/07/08 10:08:46;;;;;;;6.65;1.10;;;;;;;47.65;18.57;100231.13;1681962;83;21037;-67
2023/07/08 10:11:32;;;;;;;2.15;1.25;;;;;;;48.72;18.04;100234.05;1682325;83;21078;-63
2023/07/08 10:14:17;;;;;;;2.12;1.40;;;;;;;49.02;17.86;100233.29;1682849;83;21156;-68
2023/07/08 10:16:43;;;;;;;2.60;1.20;;;;;;;49.24;17.81;100234.39;1590103;88;21130;-65
2023/07/08 10:19:14;;;;;;;3.65;1.30;;;;;;;50.30;17.15;100232.43;1619816;87;21049;-68
2023/07/08 10:22:01;;;;;;;3.75;1.30;;;;;;;50.98;17.07;100231.34;1617160;86;21132;-68
2023/07/08 10:24:49;;;;;;;3.50;1.40;;;;;;;52.20;16.84;100234.09;1623020;86;21118;-68
2023/07/08 10:27:20;;;;;;;2.40;1.50;;;;;;;53.17;16.29;100228.09;1623357;87;21148;-68
2023/07/08 10:30:13;;;;;;;5.35;1.70;;;;;;;52.76;15.50;100229.84;1621229;87;21115;-68
2023/07/08 10:32:53;;;;;;;3.37;1.50;;;;;;;52.40;15.31;100241.64;1613932;87;21540;-68
2023/07/08 10:35:28;;;;;;;1.87;1.62;;;;;;;52.64;14.92;100235.95;1621638;87;21048;-68
2023/07/08 10:38:10;;;;;;;3.05;1.95;;;;;;;52.96;14.53;100229.53;1617905;86;21036;-68
2023/07/08 10:40:57;;;;;;;3.25;2.00;;;;;;;53.43;14.23;100229.75;1621859;87;21509;-68
2023/07/08 10:43:30;;;;;;;2.87;1.98;;;;;;;53.97;13.87;100229.45;1593701;88;21081;-69
2023/07/08 10:46:08;;;;;;;2.37;1.37;;;;;;;52.62;13.60;100228.50;1620399;87;21060;-69
2023/07/08 10:48:38;;;;;;;3.05;1.80;;;;;;;53.34;13.70;100234.06;1621655;87;21109;-69
2023/07/08 10:51:32;;;;;;;3.12;1.80;;;;;;;54.23;13.31;100225.45;1614823;87;21108;-69
2023/07/08 10:54:20;;;;;;;1.57;1.37;;;;;;;53.81;13.00;100223.81;1614429;87;21122;-69
2023/07/08 10:56:56;;;;;;;4.90;1.60;;;;;;;53.65;12.78;100218.69;1614201;87;21078;-68
2023/07/08 10:59:44;;;;;;;1.70;1.30;;;;;;;53.73;12.66;100210.80;1609725;89;21055;-69
2023/07/08 11:02:17;;;;;;;1.92;1.30;;;;;;;53.65;12.40;100211.71;1608878;87;22342;-69
2023/07/08 11:05:11;;;;;;;2.58;1.40;;;;;;;53.26;12.18;100202.87;1630840;87;22314;-68
2023/07/08 11:07:43;;;;;;;2.05;1.40;;;;;;;52.81;12.06;100205.70;1592405;88;21031;-67
2023/07/08 11:10:19;;;;;;;1.85;1.30;;;;;;;51.65;11.63;100208.89;1592432;88;21740;-70
2023/07/08 11:12:49;;;;;;;2.60;1.77;;;;;;;51.11;12.00;100203.06;1592390;88;21067;-67
2023/07/08 11:15:23;;;;;;;2.67;1.25;;;;;;;51.07;11.86;100193.77;1593213;88;21562;-68
2023/07/08 11:17:58;;;;;;;2.40;1.07;;;;;;;50.78;11.72;100193.92;1593443;88;21014;-68
2023/07/08 11:20:37;;;;;;;3.30;0.98;;;;;;;49.62;11.85;100189.52;1592588;90;21637;-67
2023/07/08 11:23:12;;;;;;;4.05;1.00;;;;;;;48.66;11.64;100196.53;1575688;88;21073;-68
2023/07/08 11:25:40;;;;;;;3.20;0.90;;;;;;;48.00;12.11;100194.14;1591017;89;21417;-70
2023/07/08 11:28:10;;;;;;;5.92;1.10;;;;;;;47.85;12.14;100194.50;1591446;90;21007;-68
2023/07/08 11:30:41;;;;;;;3.62;0.82;;;;;;;47.81;12.23;100200.38;1593102;89;21093;-68
2023/07/08 11:33:10;;;;;;;2.75;0.90;;;;;;;47.41;12.03;100192.59;1592394;89;21657;-67
2023/07/08 11:35:40;;;;;;;5.08;0.98;;;;;;;46.78;12.14;100186.28;1591657;88;21129;-67